createdAt,value
2018-10-03T00:00:32.577Z,1.77
2018-10-03T00:03:01.526Z,1.57
2018-10-03T00:05:30.291Z,1.57
2018-10-03T00:07:59.202Z,2.70
2018-10-03T00:10:27.913Z,1.92
2018-10-03T00:12:56.830Z,0.45
2018-10-03T00:15:25.592Z,0.80
2018-10-03T00:17:54.332Z,1.40
2018-10-03T00:20:23.112Z,0.60
2018-10-03T00:22:52.098Z,1.42
2018-10-03T00:25:20.867Z,1.30
2018-10-03T00:27:49.625Z,1.42
2018-10-03T00:30:18.311Z,1.10
2018-10-03T00:32:47.065Z,1.72
2018-10-03T00:35:15.945Z,0.80
2018-10-03T00:37:44.693Z,0.65
2018-10-03T00:40:13.509Z,1.20
2018-10-03T00:42:42.279Z,1.02
2018-10-03T00:45:11.092Z,1.15
2018-10-03T00:47:39.876Z,0.90
2018-10-03T00:50:08.746Z,1.12
2018-10-03T00:52:37.513Z,2.58
2018-10-03T00:55:06.661Z,0.90
2018-10-03T00:57:35.461Z,1.98
2018-10-03T01:00:04.630Z,2.17
2018-10-03T01:02:33.399Z,1.32
2018-10-03T01:05:02.148Z,2.60
2018-10-03T01:07:30.908Z,2.33
2018-10-03T01:09:59.715Z,3.67
2018-10-03T01:12:28.496Z,2.90
2018-10-03T01:14:57.364Z,2.52
2018-10-03T01:17:26.081Z,1.05
2018-10-03T01:19:54.870Z,0.42
2018-10-03T01:22:23.576Z,2.12
2018-10-03T01:24:52.381Z,2.30
2018-10-03T01:27:21.120Z,1.07
2018-10-03T01:29:49.912Z,0.75
2018-10-03T01:32:18.701Z,1.22
2018-10-03T01:34:47.521Z,0.70
2018-10-03T01:37:16.333Z,1.90
2018-10-03T01:39:45.062Z,1.22
2018-10-03T01:42:13.794Z,1.20
2018-10-03T01:44:42.694Z,2.22
2018-10-03T01:47:11.483Z,1.57
2018-10-03T01:49:40.192Z,1.80
2018-10-03T01:52:08.927Z,2.20
2018-10-03T01:54:37.683Z,0.98
2018-10-03T01:57:06.460Z,1.02
2018-10-03T01:59:35.214Z,1.47
2018-10-03T02:02:04.065Z,1.07
2018-10-03T02:04:32.862Z,1.87
2018-10-03T02:07:01.627Z,1.15
2018-10-03T02:09:30.463Z,0.70
2018-10-03T02:11:59.264Z,1.65
2018-10-03T02:14:28.039Z,0.98
2018-10-03T02:16:56.867Z,2.65
2018-10-03T02:19:25.610Z,0.98
2018-10-03T02:21:54.350Z,1.70
2018-10-03T02:24:23.063Z,2.55
2018-10-03T02:26:51.795Z,1.22
2018-10-03T02:29:20.622Z,2.35
2018-10-03T02:31:51.061Z,0.85
2018-10-03T02:34:19.915Z,0.95
2018-10-03T02:36:48.673Z,2.92
2018-10-03T02:39:17.507Z,1.17
2018-10-03T02:41:46.258Z,1.52
2018-10-03T02:44:15.089Z,2.62
2018-10-03T02:46:43.824Z,0.65
2018-10-03T02:49:12.557Z,1.77
2018-10-03T02:51:41.323Z,2.05
2018-10-03T02:54:10.032Z,1.70
2018-10-03T02:56:38.736Z,2.20
2018-10-03T02:59:07.508Z,1.72
2018-10-03T03:01:36.334Z,2.17
2018-10-03T03:04:05.218Z,5.47
2018-10-03T03:06:34.007Z,2.08
2018-10-03T03:09:02.927Z,4.70
2018-10-03T03:11:31.696Z,1.07
2018-10-03T03:14:00.459Z,1.77
2018-10-03T03:16:29.163Z,1.70
2018-10-03T03:18:57.936Z,3.33
2018-10-03T03:21:26.648Z,3.12
2018-10-03T03:23:55.365Z,1.50
2018-10-03T03:26:24.149Z,1.87
2018-10-03T03:28:52.943Z,2.87
2018-10-03T03:31:21.713Z,0.80
2018-10-03T03:33:50.534Z,1.40
2018-10-03T03:36:19.285Z,1.75
2018-10-03T03:38:48.014Z,3.70
2018-10-03T03:41:16.845Z,2.72
2018-10-03T03:43:45.586Z,5.22
2018-10-03T03:46:14.301Z,2.98
2018-10-03T03:48:43.064Z,3.35
2018-10-03T03:51:11.785Z,2.40
2018-10-03T03:53:40.496Z,1.52
2018-10-03T03:56:09.214Z,1.52
2018-10-03T03:58:37.996Z,0.85
2018-10-03T04:01:06.743Z,1.00
2018-10-03T04:03:35.506Z,1.90
2018-10-03T04:06:04.358Z,0.90
2018-10-03T04:08:33.142Z,0.72
2018-10-03T04:11:01.891Z,2.77
2018-10-03T04:13:30.631Z,2.87
2018-10-03T04:16:00.244Z,2.30
2018-10-03T04:18:29.078Z,2.47
2018-10-03T04:20:57.817Z,4.70
2018-10-03T04:23:26.705Z,1.42
2018-10-03T04:25:55.566Z,3.27
2018-10-03T04:28:24.324Z,1.82
2018-10-03T04:30:53.089Z,1.17
2018-10-03T04:33:21.892Z,1.30
2018-10-03T04:35:50.637Z,1.92
2018-10-03T04:38:19.494Z,2.40
2018-10-03T04:40:48.280Z,0.53
2018-10-03T04:43:17.048Z,3.95
2018-10-03T04:45:45.743Z,1.85
2018-10-03T04:48:14.542Z,1.22
2018-10-03T04:50:43.311Z,1.60
2018-10-03T04:53:12.084Z,2.80
2018-10-03T04:55:40.830Z,2.17
2018-10-03T04:58:09.564Z,1.62
2018-10-03T05:00:39.297Z,1.52
2018-10-03T05:03:08.076Z,4.33
2018-10-03T05:05:36.862Z,3.50
2018-10-03T05:08:05.612Z,2.17
2018-10-03T05:10:34.339Z,3.40
2018-10-03T05:13:03.204Z,5.90
2018-10-03T05:15:32.040Z,5.87
2018-10-03T05:18:00.884Z,6.12
2018-10-03T05:20:30.449Z,2.55
2018-10-03T05:22:59.203Z,10.48
2018-10-03T05:25:27.946Z,12.78
2018-10-03T05:27:56.780Z,9.08
2018-10-03T05:30:25.527Z,16.00
2018-10-03T05:32:54.425Z,6.35
2018-10-03T05:35:23.179Z,12.58
2018-10-03T05:37:52.448Z,4.03
2018-10-03T05:40:21.288Z,13.62
2018-10-03T05:42:50.076Z,5.60
2018-10-03T05:45:19.064Z,6.72
2018-10-03T05:47:47.972Z,6.45
2018-10-03T05:50:16.780Z,5.40
2018-10-03T05:52:45.557Z,7.50
2018-10-03T05:55:14.342Z,2.75
2018-10-03T05:57:43.133Z,7.28
2018-10-03T06:00:11.977Z,5.40
2018-10-03T06:02:40.779Z,4.12
2018-10-03T06:05:09.651Z,2.58
2018-10-03T06:07:38.434Z,3.80
2018-10-03T06:10:07.320Z,1.57
2018-10-03T06:12:36.196Z,3.02
2018-10-03T06:15:05.766Z,3.83
2018-10-03T06:17:34.601Z,4.37
2018-10-03T06:20:03.703Z,2.17
2018-10-03T06:22:32.449Z,2.35
2018-10-03T06:25:01.254Z,4.45
2018-10-03T06:27:30.005Z,3.00
2018-10-03T06:29:58.851Z,2.58
2018-10-03T06:32:27.709Z,3.65
2018-10-03T06:34:56.523Z,3.52
2018-10-03T06:37:25.242Z,2.60
2018-10-03T06:39:54.059Z,2.80
2018-10-03T06:42:22.869Z,4.10
2018-10-03T06:44:51.653Z,3.80
2018-10-03T06:47:20.514Z,3.25
2018-10-03T06:49:49.297Z,3.25
2018-10-03T06:52:18.064Z,1.22
2018-10-03T06:54:46.851Z,3.25
2018-10-03T06:57:15.590Z,2.30
2018-10-03T06:59:44.328Z,2.05
2018-10-03T07:02:13.063Z,2.02
2018-10-03T07:04:41.831Z,2.02
2018-10-03T07:07:10.607Z,1.62
2018-10-03T07:09:39.341Z,2.62
2018-10-03T07:12:08.119Z,2.27
2018-10-03T07:14:37.064Z,1.90
2018-10-03T07:17:05.835Z,2.02
2018-10-03T07:19:34.584Z,1.60
2018-10-03T07:22:03.438Z,2.12
2018-10-03T07:24:32.201Z,1.62
2018-10-03T07:27:00.961Z,1.82
2018-10-03T07:29:29.707Z,3.20
2018-10-03T07:31:58.482Z,2.47
2018-10-03T07:34:27.198Z,1.67
2018-10-03T07:36:55.953Z,1.60
2018-10-03T07:39:24.739Z,1.17
2018-10-03T07:41:53.597Z,1.40
2018-10-03T07:44:22.352Z,2.15
2018-10-03T07:46:51.219Z,2.62
2018-10-03T07:49:20.006Z,1.77
2018-10-03T07:51:48.783Z,1.98
2018-10-03T07:54:17.585Z,2.02
2018-10-03T07:56:46.390Z,2.08
2018-10-03T07:59:15.149Z,2.90
2018-10-03T08:01:43.991Z,2.05
2018-10-03T08:04:12.823Z,3.60
2018-10-03T08:06:41.796Z,2.30
2018-10-03T08:09:11.359Z,2.55
2018-10-03T08:11:40.410Z,1.55
2018-10-03T08:14:09.245Z,2.90
2018-10-03T08:16:38.173Z,2.98
2018-10-03T08:19:06.964Z,2.27
2018-10-03T08:21:35.725Z,3.47
2018-10-03T08:24:04.540Z,2.20
2018-10-03T08:26:33.297Z,4.00
2018-10-03T08:29:02.078Z,3.20
2018-10-03T08:31:30.875Z,2.75
2018-10-03T08:33:59.662Z,3.77
2018-10-03T08:36:28.401Z,2.22
2018-10-03T08:38:57.203Z,4.42
2018-10-03T08:41:26.019Z,1.98
2018-10-03T08:43:54.789Z,2.40
2018-10-03T08:46:23.574Z,2.95
2018-10-03T08:48:52.390Z,1.90
2018-10-03T08:51:21.174Z,4.05
2018-10-03T08:53:49.945Z,1.87
2018-10-03T08:56:18.822Z,2.10
2018-10-03T08:58:47.629Z,2.87
2018-10-03T09:01:16.483Z,2.47
2018-10-03T09:03:45.225Z,2.75
2018-10-03T09:06:13.958Z,2.37
2018-10-03T09:08:42.785Z,3.02
2018-10-03T09:11:11.531Z,5.10
2018-10-03T09:13:40.319Z,3.70
2018-10-03T09:16:09.128Z,2.62
2018-10-03T09:18:38.037Z,3.98
2018-10-03T09:21:07.126Z,4.05
2018-10-03T09:23:35.875Z,3.00
2018-10-03T09:26:04.841Z,1.90
2018-10-03T09:28:33.567Z,2.50
2018-10-03T09:31:03.045Z,3.05
2018-10-03T09:33:31.812Z,4.50
2018-10-03T09:36:00.564Z,3.15
2018-10-03T09:38:29.410Z,2.05
2018-10-03T09:40:59.077Z,3.87
2018-10-03T09:43:27.857Z,2.42
2018-10-03T09:45:56.631Z,1.65
2018-10-03T09:48:25.380Z,2.77
2018-10-03T09:50:54.176Z,2.50
2018-10-03T09:53:22.943Z,1.80
2018-10-03T09:55:51.733Z,2.80
2018-10-03T09:58:20.507Z,2.08
2018-10-03T10:00:54.583Z,1.80
2018-10-03T10:03:23.425Z,2.98
2018-10-03T10:05:52.215Z,4.12
2018-10-03T10:08:21.025Z,2.75
2018-10-03T10:10:49.773Z,3.37
2018-10-03T10:13:18.639Z,2.55
2018-10-03T10:15:47.440Z,3.75
2018-10-03T10:18:16.249Z,3.87
2018-10-03T10:20:45.035Z,1.92
2018-10-03T10:23:13.811Z,3.33
2018-10-03T10:25:42.594Z,2.70
2018-10-03T10:28:11.511Z,3.02
2018-10-03T10:30:40.456Z,4.87
2018-10-03T10:33:09.310Z,2.30
2018-10-03T10:35:38.032Z,1.70
2018-10-03T10:38:07.032Z,2.05
2018-10-03T10:40:35.961Z,1.50
2018-10-03T10:43:04.867Z,2.55
2018-10-03T10:45:33.659Z,3.55
2018-10-03T10:48:02.697Z,2.00
2018-10-03T10:50:31.472Z,2.15
2018-10-03T10:53:00.196Z,2.52
2018-10-03T10:55:29.015Z,3.22
2018-10-03T10:57:58.247Z,4.92
2018-10-03T11:00:28.110Z,3.67
2018-10-03T11:02:57.094Z,2.62
2018-10-03T11:05:25.942Z,3.27
2018-10-03T11:07:54.706Z,3.33
2018-10-03T11:10:23.562Z,2.50
2018-10-03T11:12:52.304Z,4.30
2018-10-03T11:15:21.214Z,2.10
2018-10-03T11:17:49.956Z,2.47
2018-10-03T11:20:18.678Z,2.30
2018-10-03T11:22:47.435Z,3.20
2018-10-03T11:25:16.245Z,2.42
2018-10-03T11:27:45.217Z,3.30
2018-10-03T11:30:13.959Z,3.65
2018-10-03T11:32:42.688Z,4.20
2018-10-03T11:35:11.563Z,2.77
2018-10-03T11:37:40.512Z,2.35
2018-10-03T11:40:09.504Z,2.55
2018-10-03T11:42:38.337Z,2.40
2018-10-03T11:45:07.128Z,2.83
2018-10-03T11:47:35.933Z,1.72
2018-10-03T11:50:05.062Z,2.70
2018-10-03T11:52:33.801Z,3.62
2018-10-03T11:55:02.597Z,5.08
2018-10-03T11:57:31.394Z,2.15
2018-10-03T12:00:00.213Z,2.98
2018-10-03T12:02:29.213Z,3.45
2018-10-03T12:04:57.989Z,2.65
2018-10-03T12:07:27.760Z,2.30
2018-10-03T12:09:56.598Z,3.12
2018-10-03T12:12:25.415Z,1.62
2018-10-03T12:14:54.222Z,2.52
2018-10-03T12:17:22.969Z,2.83
2018-10-03T12:19:51.786Z,1.52
2018-10-03T12:22:20.496Z,2.42
2018-10-03T12:24:49.387Z,3.33
2018-10-03T12:27:18.106Z,1.25
2018-10-03T12:29:46.902Z,2.05
2018-10-03T12:32:16.082Z,3.98
2018-10-03T12:34:44.934Z,1.87
2018-10-03T12:37:14.690Z,1.87
2018-10-03T12:39:43.422Z,3.15
2018-10-03T12:42:12.366Z,1.37
2018-10-03T12:44:41.167Z,2.25
2018-10-03T12:47:09.906Z,2.65
2018-10-03T12:49:38.753Z,2.27
2018-10-03T12:52:08.186Z,2.55
2018-10-03T12:54:36.946Z,3.45
2018-10-03T12:57:05.677Z,2.12
2018-10-03T12:59:34.501Z,2.15
2018-10-03T13:02:03.286Z,3.22
2018-10-03T13:04:32.173Z,1.87
2018-10-03T13:07:00.887Z,2.55
2018-10-03T13:09:29.750Z,1.72
2018-10-03T13:11:58.551Z,2.85
2018-10-03T13:14:27.320Z,1.77
2018-10-03T13:16:56.139Z,2.30
2018-10-03T13:19:24.936Z,1.17
2018-10-03T13:21:53.732Z,1.80
2018-10-03T13:24:22.527Z,1.95
2018-10-03T13:26:51.276Z,2.37
2018-10-03T13:29:20.047Z,1.77
2018-10-03T13:31:48.855Z,3.10
2018-10-03T13:34:17.617Z,1.52
2018-10-03T13:36:46.365Z,2.80
2018-10-03T13:39:15.173Z,2.10
2018-10-03T13:41:44.052Z,1.50
2018-10-03T13:44:12.812Z,1.05
2018-10-03T13:46:41.680Z,2.62
2018-10-03T13:49:10.398Z,1.82
2018-10-03T13:51:39.174Z,3.20
2018-10-03T13:54:07.935Z,2.77
2018-10-03T13:56:36.724Z,1.50
2018-10-03T13:59:05.892Z,1.15
2018-10-03T14:01:34.647Z,1.67
2018-10-03T14:04:03.397Z,1.42
2018-10-03T14:06:32.298Z,1.57
2018-10-03T14:09:01.169Z,1.45
2018-10-03T14:11:30.037Z,1.45
2018-10-03T14:13:58.838Z,1.80
2018-10-03T14:16:27.682Z,1.15
2018-10-03T14:18:56.464Z,1.80
2018-10-03T14:21:25.285Z,2.25
2018-10-03T14:23:54.123Z,2.25
2018-10-03T14:26:22.950Z,1.55
2018-10-03T14:28:51.733Z,1.37
2018-10-03T14:31:20.525Z,1.32
2018-10-03T14:33:49.340Z,1.05
2018-10-03T14:36:18.165Z,1.55
2018-10-03T14:38:47.071Z,1.77
2018-10-03T14:41:15.877Z,1.27
2018-10-03T14:43:44.667Z,2.25
2018-10-03T14:46:13.583Z,2.00
2018-10-03T14:48:42.588Z,1.50
2018-10-03T14:51:12.060Z,2.08
2018-10-03T14:53:40.882Z,1.40
2018-10-03T14:56:14.779Z,2.65
2018-10-03T14:58:44.765Z,1.22
2018-10-03T15:01:14.243Z,1.30
2018-10-03T15:03:45.722Z,1.10
2018-10-03T15:06:14.677Z,0.90
2018-10-03T15:08:44.070Z,1.40
2018-10-03T15:11:14.760Z,1.72
2018-10-03T15:13:45.951Z,0.95
2018-10-03T15:16:16.034Z,0.70
2018-10-03T15:18:45.696Z,1.00
2018-10-03T15:21:16.676Z,1.25
2018-10-03T15:23:46.628Z,1.20
2018-10-03T15:26:18.279Z,2.60
2018-10-03T15:28:47.353Z,1.80
2018-10-03T15:31:17.716Z,1.25
2018-10-03T15:33:47.268Z,0.93
2018-10-03T15:36:18.263Z,1.30
2018-10-03T15:38:48.377Z,1.07
2018-10-03T15:41:18.837Z,1.45
2018-10-03T15:43:48.098Z,3.40
2018-10-03T15:46:17.461Z,1.15
2018-10-03T15:48:46.635Z,1.75
2018-10-03T15:51:16.092Z,1.60
2018-10-03T15:53:45.400Z,2.27
2018-10-03T15:56:14.865Z,2.42
2018-10-03T15:58:45.250Z,2.35
2018-10-03T16:03:53.184Z,2.45
2018-10-03T16:06:23.879Z,2.65
2018-10-03T16:08:54.045Z,2.75
2018-10-03T16:11:23.557Z,2.45
2018-10-03T16:13:52.984Z,2.98
2018-10-03T16:16:22.376Z,2.00
2018-10-03T16:18:53.074Z,2.45
2018-10-03T16:21:22.876Z,3.35
2018-10-03T16:23:56.229Z,2.77
2018-10-03T16:26:26.655Z,4.67
2018-10-03T16:28:56.621Z,5.55
2018-10-03T16:31:25.853Z,2.50
2018-10-03T16:33:58.390Z,4.05
2018-10-03T16:36:29.050Z,4.70
2018-10-03T16:38:59.327Z,3.27
2018-10-03T16:41:29.297Z,3.47
2018-10-03T16:43:59.229Z,4.47
2018-10-03T16:46:28.040Z,3.25
2018-10-03T16:48:57.040Z,5.25
2018-10-03T16:51:26.019Z,4.45
2018-10-03T16:53:54.818Z,2.98
2018-10-03T16:56:23.621Z,3.67
2018-10-03T16:58:52.503Z,4.10
2018-10-03T17:01:21.325Z,5.42
2018-10-03T17:03:50.193Z,8.25
2018-10-03T17:06:19.033Z,8.38
2018-10-03T17:08:47.877Z,5.37
2018-10-03T17:11:16.842Z,8.25
2018-10-03T17:13:56.825Z,8.70
2018-10-03T17:16:25.858Z,7.70
2018-10-03T17:18:54.747Z,10.10
2018-10-03T17:21:23.702Z,5.87
2018-10-03T17:23:52.576Z,8.33
2018-10-03T17:26:21.492Z,7.87
2018-10-03T17:28:50.369Z,7.90
2018-10-03T17:31:19.269Z,7.58
2018-10-03T17:33:48.363Z,10.20
2018-10-03T17:36:18.119Z,7.55
2018-10-03T17:38:47.001Z,6.72
2018-10-03T17:41:15.832Z,5.78
2018-10-03T17:43:45.396Z,5.00
2018-10-03T17:46:14.264Z,8.55
2018-10-03T17:48:44.324Z,5.75
2018-10-03T17:51:13.207Z,9.10
2018-10-03T17:53:42.028Z,7.20
2018-10-03T17:56:11.023Z,7.58
2018-10-03T17:58:39.955Z,3.92
2018-10-03T18:01:09.064Z,6.80
2018-10-03T18:03:38.058Z,4.10
2018-10-03T18:06:06.957Z,3.85
2018-10-03T18:08:36.048Z,5.55
2018-10-03T18:11:04.998Z,3.52
2018-10-03T18:13:33.946Z,3.95
2018-10-03T18:16:03.204Z,4.37
2018-10-03T18:18:32.053Z,5.58
2018-10-03T18:21:00.949Z,6.20
2018-10-03T18:23:29.834Z,5.53
2018-10-03T18:25:58.684Z,3.60
2018-10-03T18:28:27.514Z,5.17
2018-10-03T18:30:56.312Z,4.05
2018-10-03T18:33:26.622Z,4.85
2018-10-03T18:35:56.690Z,4.42
2018-10-03T18:38:25.614Z,4.10
2018-10-03T18:40:54.701Z,6.87
2018-10-03T18:43:23.512Z,6.03
2018-10-03T18:45:52.419Z,3.67
2018-10-03T18:48:21.431Z,5.25
2018-10-03T18:50:50.462Z,3.58
2018-10-03T18:53:19.317Z,4.45
2018-10-03T18:55:48.301Z,5.37
2018-10-03T18:58:17.431Z,3.80
2018-10-03T19:00:46.436Z,6.22
2018-10-03T19:03:15.432Z,3.22
2018-10-03T19:05:44.463Z,2.72
2018-10-03T19:08:13.401Z,4.42
2018-10-03T19:10:42.429Z,4.92
2018-10-03T19:13:11.516Z,3.25
2018-10-03T19:15:40.606Z,3.52
2018-10-03T19:18:09.598Z,4.80
2018-10-03T19:20:38.723Z,4.75
2018-10-03T19:23:07.705Z,5.35
2018-10-03T19:25:36.842Z,4.35
2018-10-03T19:28:05.834Z,5.50
2018-10-03T19:30:34.658Z,3.83
2018-10-03T19:33:04.630Z,4.75
2018-10-03T19:35:34.136Z,4.25
2018-10-03T19:38:04.003Z,5.08
2018-10-03T19:40:32.902Z,3.52
2018-10-03T19:43:01.755Z,3.72
2018-10-03T19:45:30.919Z,6.53
2018-10-03T19:47:59.840Z,3.80
2018-10-03T19:50:28.876Z,5.55
2018-10-03T19:52:57.724Z,4.33
2018-10-03T19:55:26.630Z,4.40
2018-10-03T19:57:56.199Z,4.60
2018-10-03T20:00:25.120Z,4.08
2018-10-03T20:02:54.087Z,3.30
2018-10-03T20:05:23.147Z,3.30
2018-10-03T20:07:52.155Z,4.92
2018-10-03T20:10:21.247Z,4.10
2018-10-03T20:12:50.133Z,4.28
2018-10-03T20:15:19.059Z,2.55
2018-10-03T20:17:47.965Z,4.33
2018-10-03T20:20:16.887Z,3.17
2018-10-03T20:22:46.033Z,5.53
2018-10-03T20:25:15.773Z,2.80
2018-10-03T20:27:44.605Z,3.10
2018-10-03T20:30:13.522Z,4.03
2018-10-03T20:32:42.468Z,4.22
2018-10-03T20:35:11.372Z,7.45
2018-10-03T20:37:40.179Z,4.55
2018-10-03T20:40:10.254Z,6.53
2018-10-03T20:42:39.174Z,9.70
2018-10-03T20:45:08.800Z,10.25
2018-10-03T20:47:37.647Z,7.10
2018-10-03T20:50:06.727Z,8.08
2018-10-03T20:52:35.615Z,7.03
2018-10-03T20:55:04.537Z,4.65
2018-10-03T20:57:33.399Z,3.87
2018-10-03T21:00:02.598Z,6.03
2018-10-03T21:02:31.647Z,8.25
2018-10-03T21:05:00.426Z,6.42
2018-10-03T21:07:29.279Z,4.87
2018-10-03T21:09:58.049Z,4.50
2018-10-03T21:12:27.233Z,3.58
2018-10-03T21:14:56.380Z,4.25
2018-10-03T21:17:25.634Z,5.60
2018-10-03T21:19:55.597Z,6.42
2018-10-03T21:22:24.360Z,4.65
2018-10-03T21:24:53.466Z,4.42
2018-10-03T21:27:22.480Z,8.78
2018-10-03T21:29:51.494Z,5.70
2018-10-03T21:32:20.506Z,4.70
2018-10-03T21:34:49.719Z,3.35
2018-10-03T21:37:18.808Z,3.77
2018-10-03T21:39:47.604Z,4.70
2018-10-03T21:42:16.761Z,3.15
2018-10-03T21:44:45.842Z,4.12
2018-10-03T21:47:45.539Z,4.50
2018-10-03T21:50:14.362Z,4.95
2018-10-03T21:52:43.283Z,3.77
2018-10-03T21:55:12.262Z,4.28
2018-10-03T21:57:41.068Z,3.52
2018-10-03T22:00:10.409Z,3.02
2018-10-03T22:02:40.674Z,5.22
2018-10-03T22:05:10.444Z,2.42
2018-10-03T22:07:40.051Z,4.28
2018-10-03T22:10:09.337Z,4.15
2018-10-03T22:12:38.333Z,4.10
2018-10-03T22:15:08.228Z,5.58
2018-10-03T22:17:40.638Z,2.67
2018-10-03T22:20:10.236Z,3.58
2018-10-03T22:22:40.148Z,3.55
2018-10-03T22:25:09.313Z,3.33
2018-10-03T22:27:38.521Z,4.20
2018-10-03T22:30:09.662Z,4.03
2018-10-03T22:32:38.885Z,3.20
2018-10-03T22:35:09.540Z,3.60
2018-10-03T22:37:38.878Z,5.17
2018-10-03T22:40:07.972Z,3.80
2018-10-03T22:42:37.859Z,3.17
2018-10-03T22:45:07.250Z,2.45
2018-10-03T22:47:36.541Z,2.85
2018-10-03T22:50:06.696Z,5.65
2018-10-03T22:52:35.866Z,4.70
2018-10-03T22:55:05.213Z,2.12
2018-10-03T22:57:34.044Z,5.67
2018-10-03T23:00:02.966Z,6.17
2018-10-03T23:02:32.135Z,3.17
2018-10-03T23:05:01.053Z,4.22
2018-10-03T23:07:30.928Z,3.17
2018-10-03T23:09:59.964Z,2.27
2018-10-03T23:12:29.082Z,3.52
2018-10-03T23:14:58.474Z,3.20
2018-10-03T23:17:28.210Z,3.52
2018-10-03T23:19:57.002Z,3.42
2018-10-03T23:22:26.177Z,3.40
2018-10-03T23:24:57.668Z,3.95
2018-10-03T23:27:26.696Z,2.17
2018-10-03T23:29:56.078Z,3.62
2018-10-03T23:32:25.121Z,2.15
2018-10-03T23:34:54.812Z,3.12
2018-10-03T23:37:24.628Z,4.10
2018-10-03T23:39:53.646Z,2.67
2018-10-03T23:42:22.638Z,2.33
2018-10-03T23:44:51.721Z,4.05
2018-10-03T23:47:21.458Z,3.55
2018-10-03T23:49:50.811Z,3.80
2018-10-03T23:53:49.212Z,3.62
2018-10-03T23:56:18.056Z,2.65
2018-10-03T23:58:46.987Z,3.62
